Time;durP1;ratioP1;P1;durP2;ratioP2;P2;SDS_P1;SDS_P2;PMS_P1;PMS_P2;Temp;Humidity;BMP_temperature;BMP_pressure;BME280_temperature;BME280_humidity;BME280_pressure;Samples;Min_cycle;Max_cycle;Signal;HPM_P1;HPM_P2
2022/10/08 00:01:29;;;;;;;5.67;4.23;;;;;;;-142.65;77.42;50168.78;5096829;28;20267;-67
2022/10/08 00:03:56;;;;;;;12.03;4.70;;;;;;;;;;5096447;28;20193;-67
2022/10/08 00:06:23;;;;;;;7.80;4.93;;;;;;;;;;5096410;28;20189;-67
2022/10/08 00:09:01;;;;;;;14.33;6.20;;;;;;;-142.65;77.79;50170.78;5096393;28;20178;-67
2022/10/08 00:11:31;;;;;;;6.87;5.40;;;;;;;-142.65;77.43;50170.78;5096615;28;20182;-67
2022/10/08 00:13:58;;;;;;;13.23;5.27;;;;;;;-142.65;77.29;50170.78;5096203;28;20282;-67
2022/10/08 00:16:30;;;;;;;10.57;4.87;;;;;;;-142.65;77.15;50170.78;5096713;28;20216;-67
2022/10/08 00:19:00;;;;;;;12.03;5.00;;;;;;;-142.65;77.04;50172.78;5096497;28;20231;-67
2022/10/08 00:21:32;;;;;;;8.70;5.23;;;;;;;-142.65;77.00;50176.75;5096733;28;20281;-67
2022/10/08 00:24:02;;;;;;;7.53;4.80;;;;;;;-142.65;77.13;50170.78;5096428;28;20189;-67
2022/10/08 00:26:31;;;;;;;5.33;4.67;;;;;;;-142.65;77.11;50170.78;5096642;28;20174;-67
2022/10/08 00:29:00;;;;;;;10.30;5.17;;;;;;;-142.65;76.97;50168.78;5095643;28;20563;-68
2022/10/08 00:31:33;;;;;;;5.53;5.00;;;;;;;-142.65;77.05;50180.75;5096496;28;20198;-67
2022/10/08 00:34:02;;;;;;;7.03;4.90;;;;;;;-142.65;76.80;50182.72;5095946;28;20193;-67
2022/10/08 00:36:30;;;;;;;10.70;5.27;;;;;;;-142.65;76.93;50170.78;5095794;28;20214;-67
2022/10/08 00:39:02;;;;;;;9.17;5.00;;;;;;;-142.65;76.72;50178.75;5095726;28;20198;-68
2022/10/08 00:41:30;;;;;;;9.93;4.73;;;;;;;;;;5095801;28;20180;-67
2022/10/08 00:43:58;;;;;;;7.00;5.23;;;;;;;-142.65;76.68;50170.78;5095696;28;20194;-67
2022/10/08 00:46:29;;;;;;;14.00;5.80;;;;;;;-142.65;77.02;50170.78;5096502;28;20184;-67
2022/10/08 00:49:01;;;;;;;5.73;5.27;;;;;;;-142.65;76.76;50178.75;5096216;28;20191;-67
2022/10/08 00:51:30;;;;;;;6.97;4.50;;;;;;;-142.65;76.51;50172.78;5095869;28;20178;-67
2022/10/08 00:54:00;;;;;;;7.10;5.23;;;;;;;-142.65;76.56;50172.78;5095471;28;20194;-67
2022/10/08 00:56:30;;;;;;;5.83;4.93;;;;;;;-142.65;76.73;50168.78;5095392;28;20213;-67
2022/10/08 00:58:56;;;;;;;4.60;4.33;;;;;;;-142.65;76.83;50170.78;5095706;28;20178;-67
2022/10/08 01:01:22;;;;;;;5.80;3.70;;;;;;;;;;5095424;28;20190;-67
2022/10/08 01:03:49;;;;;;;19.93;4.17;;;;;;;-142.65;76.64;50174.75;5095325;28;20660;-67
2022/10/08 01:06:26;;;;;;;4.07;3.77;;;;;;;-142.65;77.00;50182.72;5095275;28;20656;-67
2022/10/08 01:09:06;;;;;;;10.00;3.83;;;;;;;-142.65;76.91;50168.78;5095486;28;20182;-67
2022/10/08 01:11:48;;;;;;;5.27;4.23;;;;;;;-142.65;76.93;50174.75;5095703;28;20181;-67
2022/10/08 01:14:40;;;;;;;4.47;4.10;;;;;;;-142.65;76.81;50172.78;5095435;28;20170;-67
2022/10/08 01:17:25;;;;;;;4.40;4.17;;;;;;;-142.65;77.05;50168.78;5095383;28;20178;-67
2022/10/08 01:20:21;;;;;;;6.13;3.37;;;;;;;-142.65;76.69;50174.75;5094953;28;20243;-68
2022/10/08 01:23:21;;;;;;;7.07;3.87;;;;;;;-142.65;76.74;50178.75;5095472;28;20178;-67
2022/10/08 01:25:54;;;;;;;8.23;4.57;;;;;;;-142.65;76.68;50176.75;5095168;28;20179;-67
2022/10/08 01:28:42;;;;;;;6.47;5.03;;;;;;;-142.65;76.91;50174.75;5095441;28;20178;-67
2022/10/08 01:31:21;;;;;;;4.43;4.03;;;;;;;-142.65;76.93;50172.78;5094705;28;20234;-67
2022/10/08 01:33:54;;;;;;;5.20;4.70;;;;;;;-142.65;76.59;50178.75;5094754;28;20231;-67
2022/10/08 01:36:22;;;;;;;8.00;3.80;;;;;;;-142.65;76.33;50168.78;5094635;28;20205;-67
2022/10/08 01:38:53;;;;;;;5.50;4.63;;;;;;;;;;5094820;28;20182;-67
2022/10/08 01:41:23;;;;;;;4.60;4.27;;;;;;;-142.65;76.61;50182.72;5094006;28;20201;-67
2022/10/08 01:43:57;;;;;;;5.07;3.57;;;;;;;-142.65;77.32;50170.78;5095137;28;20181;-67
2022/10/08 01:46:25;;;;;;;4.63;3.30;;;;;;;;;;5094514;28;20166;-67
2022/10/08 01:48:55;;;;;;;7.90;3.77;;;;;;;;;;5094457;28;20560;-67
2022/10/08 01:51:27;;;;;;;8.13;3.70;;;;;;;-142.65;76.90;50174.75;5094578;28;20198;-67
2022/10/08 01:53:54;;;;;;;3.90;3.60;;;;;;;;;;5094667;28;20170;-67
2022/10/08 01:56:26;;;;;;;6.40;3.77;;;;;;;-142.65;76.82;50174.75;5094226;28;20208;-67
2022/10/08 01:59:01;;;;;;;9.17;3.83;;;;;;;-142.65;76.88;50178.75;5094591;28;20193;-67
2022/10/08 02:01:48;;;;;;;7.07;4.03;;;;;;;-142.65;76.78;50172.78;5076060;28;20201;-67
2022/10/08 02:04:32;;;;;;;10.10;4.37;;;;;;;-142.65;76.74;50180.75;5094484;28;20196;-67
2022/10/08 02:07:14;;;;;;;3.47;3.23;;;;;;;-142.65;77.25;50168.78;5094717;28;20253;-67
2022/10/08 02:09:45;;;;;;;9.43;4.50;;;;;;;;;;5094021;28;20209;-67
2022/10/08 02:12:13;;;;;;;9.50;3.70;;;;;;;-142.65;77.29;50172.78;5093993;28;20189;-67
2022/10/08 02:14:42;;;;;;;8.83;3.57;;;;;;;;;;5094317;28;20622;-67
2022/10/08 02:17:14;;;;;;;11.50;3.83;;;;;;;;;;5094151;28;20201;-67
2022/10/08 02:20:01;;;;;;;8.53;3.87;;;;;;;;;;5094419;28;20564;-68
2022/10/08 02:22:50;;;;;;;14.73;3.87;;;;;;;-142.65;77.35;50174.75;5094148;28;20201;-67
2022/10/08 02:25:27;;;;;;;5.43;3.90;;;;;;;-142.65;77.51;50170.78;5094360;28;20173;-67
2022/10/08 02:28:29;;;;;;;4.13;3.93;;;;;;;-142.65;77.32;50162.81;5094091;28;20173;-67
2022/10/08 02:31:10;;;;;;;6.57;3.50;;;;;;;-142.65;77.47;50168.78;5093677;28;20213;-68
2022/10/08 02:33:43;;;;;;;8.30;3.47;;;;;;;-142.65;77.30;50178.75;5093992;28;20193;-68
2022/10/08 02:36:12;;;;;;;5.33;3.90;;;;;;;-142.65;77.51;50174.75;5093932;28;20198;-67
2022/10/08 02:38:47;;;;;;;7.40;3.87;;;;;;;-142.65;77.65;50170.78;5093621;28;20552;-67
2022/10/08 02:41:15;;;;;;;3.10;2.90;;;;;;;-142.65;77.48;50168.78;5093853;28;20216;-67
2022/10/08 02:43:46;;;;;;;8.13;2.93;;;;;;;-142.65;77.47;50174.75;5093524;28;20193;-67
2022/10/08 02:46:19;;;;;;;10.20;3.43;;;;;;;-142.65;77.55;50170.78;5093858;28;20178;-67
2022/10/08 02:49:05;;;;;;;7.03;5.07;;;;;;;;;;5093503;28;20190;-67
2022/10/08 02:51:36;;;;;;;4.90;3.73;;;;;;;-142.65;77.77;50180.75;5093985;28;20181;-68
2022/10/08 02:54:07;;;;;;;8.83;4.70;;;;;;;-142.65;78.23;50174.75;5094024;28;20181;-68
2022/10/08 02:56:45;;;;;;;4.30;3.37;;;;;;;-142.65;78.29;50178.75;5093930;28;20560;-68
2022/10/08 02:59:16;;;;;;;3.73;3.47;;;;;;;-142.65;79.21;50168.78;5093596;28;20215;-68
2022/10/08 03:01:56;;;;;;;10.30;4.63;;;;;;;-142.65;80.53;50176.75;5093655;28;20186;-68
2022/10/08 03:04:40;;;;;;;7.03;3.90;;;;;;;-142.65;82.78;50170.78;5093313;28;20231;-67
2022/10/08 03:07:07;;;;;;;9.27;4.23;;;;;;;-142.65;83.67;50174.75;5093620;28;20170;-67
2022/10/08 03:09:35;;;;;;;6.53;3.97;;;;;;;;;;5093480;28;20220;-67
2022/10/08 03:12:02;;;;;;;8.13;4.83;;;;;;;-142.65;84.14;50174.75;5093151;28;20193;-67
2022/10/08 03:14:29;;;;;;;12.73;5.50;;;;;;;;;;5093237;28;20193;-67
2022/10/08 03:16:56;;;;;;;5.27;4.30;;;;;;;-142.65;84.84;50174.75;5093963;28;20537;-67
2022/10/08 03:19:22;;;;;;;7.07;4.73;;;;;;;-142.65;84.38;50174.75;5093109;28;20214;-68
2022/10/08 03:21:53;;;;;;;11.00;4.77;;;;;;;-142.65;84.87;50172.78;5093443;28;20577;-67
2022/10/08 03:24:19;;;;;;;7.07;5.53;;;;;;;-142.65;84.81;50170.78;5093723;28;20178;-67
2022/10/08 03:26:46;;;;;;;9.57;5.33;;;;;;;-142.65;86.32;50182.72;5093668;28;20175;-67
2022/10/08 03:29:12;;;;;;;14.30;5.23;;;;;;;-142.65;88.78;50174.75;5093230;28;20197;-68
2022/10/08 03:31:38;;;;;;;5.37;4.80;;;;;;;-142.65;89.95;50168.78;5093080;28;20668;-67
2022/10/08 03:34:05;;;;;;;8.77;4.60;;;;;;;-142.65;91.14;50168.78;5093002;28;20190;-67
2022/10/08 03:36:31;;;;;;;5.70;5.20;;;;;;;-142.65;92.25;50174.75;5093176;28;20210;-67
2022/10/08 03:38:58;;;;;;;8.40;5.13;;;;;;;-142.65;92.73;50170.78;5093246;28;20163;-67
2022/10/08 03:41:24;;;;;;;7.23;6.07;;;;;;;-142.65;93.48;50174.75;5092973;28;20174;-67
2022/10/08 03:43:50;;;;;;;9.93;5.47;;;;;;;-142.65;94.25;50172.78;5093487;28;20181;-68
2022/10/08 03:46:17;;;;;;;7.53;6.07;;;;;;;-142.65;94.37;50172.78;5093156;28;20178;-68
2022/10/08 03:48:47;;;;;;;6.73;5.87;;;;;;;-142.65;94.85;50174.75;5092839;28;20208;-67
2022/10/08 03:51:14;;;;;;;14.37;6.77;;;;;;;-142.65;94.88;50170.78;5092846;28;20228;-67
2022/10/08 03:53:42;;;;;;;9.43;6.10;;;;;;;-142.65;94.88;50170.78;5093096;28;20170;-67
2022/10/08 03:56:14;;;;;;;14.90;7.00;;;;;;;-142.65;95.07;50178.75;5092770;28;20227;-67
2022/10/08 03:58:42;;;;;;;13.53;7.10;;;;;;;-142.65;95.14;50170.78;5092840;28;20670;-67
2022/10/08 04:01:14;;;;;;;14.33;7.80;;;;;;;-142.65;95.55;50178.75;5092772;28;20213;-67
2022/10/08 04:03:41;;;;;;;11.00;6.87;;;;;;;-142.65;95.77;50182.72;5095389;28;20295;-68
2022/10/08 04:06:07;;;;;;;8.23;6.40;;;;;;;-142.65;96.03;50168.78;5096495;28;20186;-68
2022/10/08 04:08:34;;;;;;;14.93;7.23;;;;;;;-142.65;96.44;50168.78;5096451;28;20182;-68
2022/10/08 04:11:08;;;;;;;11.43;7.17;;;;;;;-142.65;96.37;50172.78;5096383;28;20206;-68
2022/10/08 04:13:35;;;;;;;14.00;8.50;;;;;;;-142.65;96.57;50176.75;5096235;28;20190;-68
2022/10/08 04:16:13;;;;;;;12.30;7.70;;;;;;;-142.65;96.64;50174.75;5096476;28;20220;-68
2022/10/08 04:18:41;;;;;;;17.00;8.50;;;;;;;-142.65;96.74;50172.78;5096549;28;20176;-68
2022/10/08 04:21:10;;;;;;;10.30;8.37;;;;;;;-142.65;96.86;50174.75;5096127;28;20212;-68
2022/10/08 04:23:38;;;;;;;12.10;8.30;;;;;;;-142.65;96.83;50180.75;5096373;28;20272;-68
2022/10/08 04:26:06;;;;;;;18.47;6.73;;;;;;;-142.65;96.83;50178.75;5096631;28;20196;-68
2022/10/08 04:28:34;;;;;;;13.60;7.57;;;;;;;-142.65;96.91;50170.78;5096023;28;20184;-68
2022/10/08 04:31:07;;;;;;;7.83;6.77;;;;;;;-142.65;97.02;50182.72;5095966;28;20209;-68
2022/10/08 04:33:34;;;;;;;9.03;7.47;;;;;;;-142.65;97.11;50170.78;5096210;28;20188;-68
2022/10/08 04:36:05;;;;;;;14.10;7.50;;;;;;;;;;5096101;28;20198;-68
2022/10/08 04:38:31;;;;;;;11.27;6.87;;;;;;;-142.65;96.90;50168.78;5096415;28;20174;-68
2022/10/08 04:41:18;;;;;;;12.83;8.13;;;;;;;-142.65;96.63;50170.78;5096243;28;20198;-68
2022/10/08 04:43:45;;;;;;;20.30;6.67;;;;;;;-142.65;96.42;50168.78;5095741;28;20189;-68
2022/10/08 04:46:14;;;;;;;10.63;6.90;;;;;;;-142.65;96.08;50178.75;5095978;28;20210;-68
2022/10/08 04:48:52;;;;;;;21.10;7.27;;;;;;;-142.65;95.90;50174.75;5095905;28;20554;-68
2022/10/08 04:51:22;;;;;;;11.13;6.83;;;;;;;-142.65;95.52;50170.78;5095838;28;20206;-68
2022/10/08 04:53:48;;;;;;;8.30;6.53;;;;;;;-142.65;95.76;50174.75;5096113;28;20640;-68
2022/10/08 04:56:29;;;;;;;10.53;7.03;;;;;;;-142.65;95.86;50170.78;5095695;28;20578;-68
2022/10/08 04:58:58;;;;;;;17.27;7.37;;;;;;;-142.65;95.67;50168.78;5096014;28;20193;-68
2022/10/08 05:01:25;;;;;;;12.87;7.77;;;;;;;-142.65;95.74;50172.78;5095372;28;20181;-67
2022/10/08 05:03:54;;;;;;;9.07;6.73;;;;;;;-142.65;95.95;50170.78;5095321;28;20731;-67
2022/10/08 05:06:24;;;;;;;8.80;7.03;;;;;;;-142.65;96.03;50174.75;5095326;28;20548;-67
2022/10/08 05:08:50;;;;;;;21.30;8.17;;;;;;;-142.65;95.88;50170.78;5095775;28;20194;-67
2022/10/08 05:11:17;;;;;;;8.03;7.23;;;;;;;;;;5095143;28;20202;-68
2022/10/08 05:18:01;;;;;;;14.87;7.37;;;;;;;-142.65;96.22;50170.78;5095379;28;20227;-68
2022/10/08 05:20:28;;;;;;;15.73;9.27;;;;;;;-142.65;96.13;50180.75;5094930;28;20202;-68
2022/10/08 05:22:54;;;;;;;16.73;8.87;;;;;;;-142.65;96.23;50172.78;5094982;28;20550;-68
2022/10/08 05:25:20;;;;;;;8.33;7.60;;;;;;;-142.65;96.17;50178.75;5095173;28;20750;-68
2022/10/08 05:27:47;;;;;;;11.70;7.40;;;;;;;-142.65;96.29;50170.78;5095407;28;20552;-68
2022/10/08 05:30:13;;;;;;;14.10;7.77;;;;;;;-142.65;96.35;50170.78;5094747;28;20209;-68
2022/10/08 05:32:46;;;;;;;14.47;7.47;;;;;;;-142.65;96.19;50174.75;5095367;28;20177;-68
2022/10/08 05:35:13;;;;;;;11.67;7.63;;;;;;;-142.65;96.02;50170.78;5094945;28;20609;-68
2022/10/08 05:37:39;;;;;;;10.47;6.97;;;;;;;-142.65;95.92;50178.75;5094594;28;20214;-68
2022/10/08 05:40:06;;;;;;;6.30;5.87;;;;;;;-142.65;95.59;50168.78;5094828;28;20567;-68
2022/10/08 05:42:32;;;;;;;11.67;6.43;;;;;;;-142.65;95.75;50168.78;5094584;28;20193;-68
2022/10/08 05:44:58;;;;;;;7.73;6.47;;;;;;;-142.65;95.54;50172.78;5094523;28;20198;-68
2022/10/08 05:47:25;;;;;;;10.87;6.73;;;;;;;-142.65;95.54;50172.78;5094454;28;20181;-68
2022/10/08 05:49:51;;;;;;;9.20;6.10;;;;;;;-142.65;95.73;50176.75;5094649;28;20206;-68
2022/10/08 05:52:17;;;;;;;7.83;5.87;;;;;;;-142.65;95.81;50170.78;5094397;28;20188;-67
2022/10/08 05:54:44;;;;;;;7.93;7.13;;;;;;;-142.65;96.00;50176.75;5094360;28;20178;-68
2022/10/08 05:57:10;;;;;;;14.57;8.20;;;;;;;-142.65;95.95;50170.78;5094505;28;20694;-67
2022/10/08 05:59:36;;;;;;;9.20;8.33;;;;;;;-142.65;96.03;50174.75;5094706;28;20711;-68
2022/10/08 06:02:03;;;;;;;7.47;6.93;;;;;;;;;;5094491;28;20674;-68
2022/10/08 06:04:29;;;;;;;8.40;7.83;;;;;;;-142.65;95.95;50168.78;5094193;28;20193;-68
2022/10/08 06:06:55;;;;;;;8.03;7.33;;;;;;;;;;5094097;28;20215;-68
2022/10/08 06:09:22;;;;;;;9.30;8.40;;;;;;;-142.65;95.97;50170.78;5094286;28;20204;-68
2022/10/08 06:11:48;;;;;;;13.00;9.13;;;;;;;-142.65;96.26;50170.78;5094168;28;20194;-68
2022/10/08 06:14:15;;;;;;;12.50;9.00;;;;;;;-142.65;96.12;50174.75;5094303;28;20170;-68
2022/10/08 06:16:42;;;;;;;8.83;8.40;;;;;;;-142.65;96.06;50170.78;5094198;28;20205;-68
2022/10/08 06:19:09;;;;;;;14.13;8.87;;;;;;;-142.65;95.69;50176.75;5093742;28;20189;-68
2022/10/08 06:21:36;;;;;;;11.13;7.47;;;;;;;-142.65;95.97;50162.81;5093627;28;20197;-68
2022/10/08 06:24:09;;;;;;;12.63;7.17;;;;;;;-142.65;95.81;50168.78;5094364;28;20186;-68
2022/10/08 06:26:37;;;;;;;13.10;7.97;;;;;;;;;;5093705;28;20542;-68
2022/10/08 06:29:04;;;;;;;7.50;6.90;;;;;;;;;;5093957;28;20197;-68
2022/10/08 06:31:31;;;;;;;17.60;8.30;;;;;;;-142.65;96.13;50170.78;5094246;28;20180;-67
2022/10/08 06:33:58;;;;;;;8.60;7.30;;;;;;;-142.65;96.07;50178.75;5094302;28;20170;-68
2022/10/08 06:36:27;;;;;;;7.07;6.30;;;;;;;-142.65;96.27;50180.75;5093579;28;20563;-67
2022/10/08 06:38:55;;;;;;;7.63;6.63;;;;;;;-142.65;96.00;50168.78;5093521;28;20194;-67
2022/10/08 06:41:22;;;;;;;9.80;7.03;;;;;;;-142.65;96.11;50174.75;5094066;28;20217;-68
2022/10/08 06:43:49;;;;;;;13.77;6.77;;;;;;;-142.65;96.12;50172.78;5093743;28;20182;-67
2022/10/08 06:46:17;;;;;;;10.33;7.10;;;;;;;-142.65;96.05;50170.78;5093776;28;20185;-67
2022/10/08 06:48:43;;;;;;;11.33;7.50;;;;;;;-142.65;96.12;50168.78;5093383;28;20193;-67
2022/10/08 06:51:12;;;;;;;8.33;6.50;;;;;;;-142.65;96.32;50168.78;5093593;28;20594;-68
2022/10/08 06:53:40;;;;;;;7.60;6.53;;;;;;;-142.65;96.57;50178.75;5093424;28;20189;-68
2022/10/08 06:56:10;;;;;;;12.93;7.17;;;;;;;-142.65;96.59;50174.75;5093329;28;20182;-68
2022/10/08 06:58:37;;;;;;;8.50;7.17;;;;;;;-142.65;96.56;50172.78;5093713;28;20613;-67
2022/10/08 07:01:09;;;;;;;14.50;6.60;;;;;;;-142.65;96.88;50168.78;5093332;28;20573;-67
2022/10/08 07:03:36;;;;;;;10.10;7.43;;;;;;;-142.65;96.70;50172.78;5093909;28;20178;-67
2022/10/08 07:06:06;;;;;;;10.23;8.23;;;;;;;-142.65;96.39;50162.81;5093524;28;20197;-67
2022/10/08 07:08:34;;;;;;;9.20;8.47;;;;;;;-142.65;96.24;50168.78;5093802;28;20197;-67
2022/10/08 07:11:22;;;;;;;11.70;7.50;;;;;;;-142.65;96.50;50174.75;5093467;28;20668;-67
2022/10/08 07:13:48;;;;;;;9.83;8.07;;;;;;;-142.65;96.60;50178.75;5093201;28;20197;-67
2022/10/08 07:16:19;;;;;;;10.77;7.93;;;;;;;-142.65;96.66;50168.78;5093096;28;20190;-67
2022/10/08 07:18:49;;;;;;;15.93;10.70;;;;;;;-142.65;96.68;50170.78;5093432;28;20166;-67
2022/10/08 07:21:17;;;;;;;13.70;11.63;;;;;;;-142.65;96.72;50172.78;5093362;28;20206;-68
2022/10/08 07:23:44;;;;;;;13.63;12.40;;;;;;;-142.65;97.02;50170.78;5093640;28;20196;-68
2022/10/08 07:26:19;;;;;;;14.57;11.73;;;;;;;-142.65;96.88;50174.75;5093070;28;20190;-68
2022/10/08 07:28:52;;;;;;;20.10;12.70;;;;;;;-142.65;97.07;50178.75;5093071;28;20621;-67
2022/10/08 07:31:22;;;;;;;19.53;13.27;;;;;;;-142.65;96.78;50182.72;5093041;28;20206;-67
2022/10/08 07:33:49;;;;;;;16.13;12.57;;;;;;;-142.65;96.88;50168.78;5092967;28;20192;-67
2022/10/08 07:36:18;;;;;;;24.67;13.60;;;;;;;-142.65;96.67;50170.78;5092966;28;20178;-68
2022/10/08 07:38:44;;;;;;;14.43;11.80;;;;;;;;;;5095790;28;20186;-67
2022/10/08 07:41:11;;;;;;;14.97;12.77;;;;;;;-142.65;96.68;50168.78;5096844;28;20296;-67
2022/10/08 07:43:41;;;;;;;14.47;13.07;;;;;;;-142.65;96.82;50174.75;5096898;28;20612;-67
2022/10/08 07:46:11;;;;;;;25.73;16.23;;;;;;;-142.65;96.71;50170.78;5097438;28;20265;-67
2022/10/08 07:48:38;;;;;;;14.87;12.00;;;;;;;;;;5097092;28;20543;-68
2022/10/08 07:51:15;;;;;;;20.53;12.13;;;;;;;-142.65;96.93;50172.78;5096708;28;20216;-68
2022/10/08 07:53:43;;;;;;;16.30;11.60;;;;;;;-142.65;96.83;50176.75;5097270;28;20182;-67
2022/10/08 07:56:12;;;;;;;15.37;11.30;;;;;;;-142.65;96.78;50164.81;5096713;28;20217;-67
2022/10/08 07:58:39;;;;;;;19.80;12.67;;;;;;;-142.65;96.70;50180.75;5096785;28;20201;-67
2022/10/08 08:01:07;;;;;;;13.03;11.73;;;;;;;;;;5096685;28;20694;-68
2022/10/08 08:03:34;;;;;;;12.00;10.77;;;;;;;-142.65;96.64;50164.81;5096509;28;20612;-67
2022/10/08 08:06:01;;;;;;;15.47;10.73;;;;;;;;;;5096442;28;20689;-67
2022/10/08 08:08:28;;;;;;;16.23;10.67;;;;;;;;;;5096409;28;20262;-67
2022/10/08 08:10:58;;;;;;;12.77;10.20;;;;;;;-142.65;95.76;50176.75;5096222;28;20209;-67
2022/10/08 08:13:25;;;;;;;18.70;11.10;;;;;;;-142.65;95.66;50174.75;5096444;28;20200;-67
2022/10/08 08:15:58;;;;;;;12.60;11.17;;;;;;;-142.65;95.52;50170.78;5096805;28;20195;-67
2022/10/08 08:18:30;;;;;;;23.27;10.30;;;;;;;-142.65;95.97;50172.78;5096156;28;20198;-67
2022/10/08 08:20:58;;;;;;;13.87;9.97;;;;;;;-142.65;95.54;50170.78;5096074;28;20300;-67
2022/10/08 08:23:27;;;;;;;17.47;10.33;;;;;;;;;;5096126;28;20193;-67
2022/10/08 08:25:53;;;;;;;15.97;10.30;;;;;;;-142.65;95.36;50178.75;5096258;28;20548;-67
2022/10/08 08:28:20;;;;;;;16.70;9.70;;;;;;;;;;5096068;28;20189;-67
2022/10/08 08:30:46;;;;;;;22.10;10.50;;;;;;;-142.65;94.31;50168.78;5095961;28;20300;-68
2022/10/08 08:33:12;;;;;;;14.80;10.73;;;;;;;;;;5095923;28;20210;-67
2022/10/08 08:35:39;;;;;;;16.50;10.77;;;;;;;;;;5095794;28;20182;-67
2022/10/08 08:38:05;;;;;;;17.80;10.63;;;;;;;-142.65;93.99;50174.75;5095830;28;20206;-67
2022/10/08 08:40:31;;;;;;;15.40;10.93;;;;;;;-142.65;93.89;50174.75;5095783;28;20204;-68
2022/10/08 08:42:58;;;;;;;20.17;10.80;;;;;;;-142.65;93.25;50164.81;5095622;28;20193;-68
2022/10/08 08:45:28;;;;;;;15.80;10.80;;;;;;;-142.65;93.27;50170.78;5095565;28;20302;-68
2022/10/08 08:48:22;;;;;;;21.20;11.50;;;;;;;-142.65;92.73;50174.75;5096133;28;20174;-67
2022/10/08 08:50:54;;;;;;;23.83;11.10;;;;;;;-142.65;92.81;50170.78;5095838;28;20237;-68
2022/10/08 08:53:21;;;;;;;14.90;9.80;;;;;;;-142.65;91.90;50168.78;5096111;28;20186;-67
2022/10/08 08:55:49;;;;;;;13.93;10.37;;;;;;;;;;5095502;28;20192;-67
2022/10/08 08:58:35;;;;;;;18.43;11.17;;;;;;;-142.65;91.33;50174.75;5095687;28;20686;-67
2022/10/08 09:01:07;;;;;;;13.83;9.70;;;;;;;-142.65;90.25;50170.78;5095590;28;20220;-68
2022/10/08 09:03:44;;;;;;;12.23;8.70;;;;;;;-142.65;89.40;50170.78;5095767;28;20215;-68
2022/10/08 09:06:15;;;;;;;9.77;8.93;;;;;;;-142.65;89.35;50170.78;5095454;28;20180;-67
2022/10/08 09:08:46;;;;;;;12.90;9.03;;;;;;;;;;5095277;28;20260;-67
2022/10/08 09:11:13;;;;;;;20.10;9.17;;;;;;;;;;5095045;28;20758;-68
2022/10/08 09:13:46;;;;;;;9.67;8.33;;;;;;;-142.65;86.90;50172.78;5095227;28;20289;-68
2022/10/08 09:16:14;;;;;;;9.27;8.07;;;;;;;-142.65;86.15;50170.78;5095688;28;20553;-68
2022/10/08 09:18:45;;;;;;;15.40;8.67;;;;;;;-142.65;85.33;50172.78;5077227;28;20223;-67
2022/10/08 09:21:11;;;;;;;9.20;7.53;;;;;;;-142.65;84.91;50168.78;5095006;28;20384;-68
2022/10/08 09:23:38;;;;;;;12.27;7.80;;;;;;;-142.65;85.03;50170.78;5076868;28;20194;-68
2022/10/08 09:26:15;;;;;;;7.83;7.10;;;;;;;-142.65;83.83;50168.78;5095448;28;20192;-68
2022/10/08 09:28:53;;;;;;;7.57;7.10;;;;;;;-142.65;83.46;50172.78;5095406;28;20180;-68
2022/10/08 09:31:37;;;;;;;7.50;6.77;;;;;;;;;;5094784;28;20202;-68
2022/10/08 09:34:10;;;;;;;6.70;6.13;;;;;;;-142.65;81.79;50170.78;5094704;28;20679;-68
2022/10/08 09:36:41;;;;;;;6.43;6.03;;;;;;;-142.65;80.32;50172.78;5095189;28;20273;-68
2022/10/08 09:39:31;;;;;;;7.27;6.43;;;;;;;-142.65;80.85;50174.75;5095171;28;20174;-68
2022/10/08 09:42:06;;;;;;;10.70;6.33;;;;;;;-142.65;81.51;50170.78;5094845;28;20181;-68
2022/10/08 09:44:44;;;;;;;7.50;6.33;;;;;;;;;;5094486;28;20272;-68
2022/10/08 09:47:20;;;;;;;11.23;7.30;;;;;;;-142.65;79.49;50168.78;5094728;28;20581;-68
2022/10/08 09:50:18;;;;;;;9.60;6.43;;;;;;;-142.65;80.67;50174.75;5094419;28;20215;-68
2022/10/08 09:52:46;;;;;;;9.00;6.13;;;;;;;;;;5084829;28;20205;-68
2022/10/08 09:55:21;;;;;;;6.43;6.10;;;;;;;-142.65;80.01;50170.78;5094232;28;20602;-68
2022/10/08 09:57:56;;;;;;;7.57;5.97;;;;;;;-142.65;79.17;50168.78;5094549;28;20284;-68
2022/10/08 10:00:25;;;;;;;6.67;6.10;;;;;;;;;;5093922;28;20299;-68
2022/10/08 10:02:54;;;;;;;6.93;5.60;;;;;;;-142.65;78.20;50170.78;5094202;28;20185;-68
2022/10/08 10:05:24;;;;;;;4.90;4.77;;;;;;;-142.65;77.54;50168.78;5094668;28;20261;-69
2022/10/08 10:07:51;;;;;;;4.37;4.13;;;;;;;-142.65;77.32;50168.78;5094051;28;20624;-69
2022/10/08 10:10:21;;;;;;;4.30;4.03;;;;;;;-142.65;78.15;50168.78;5093922;28;20296;-69
2022/10/08 10:12:53;;;;;;;3.60;3.27;;;;;;;-142.65;74.09;50170.78;5093956;28;20638;-69
2022/10/08 10:15:32;;;;;;;2.97;2.77;;;;;;;-142.65;75.00;50164.81;5094280;28;20591;-69
2022/10/08 10:18:10;;;;;;;3.73;3.63;;;;;;;;;;5094203;28;20678;-69
2022/10/08 10:20:44;;;;;;;6.77;3.33;;;;;;;-142.65;74.36;50170.78;5093731;28;20212;-69
2022/10/08 10:23:27;;;;;;;4.37;3.90;;;;;;;-142.65;73.83;50170.78;5094359;28;20185;-68
2022/10/08 10:26:03;;;;;;;2.87;2.80;;;;;;;-142.65;74.51;50170.78;5093868;28;20170;-68
2022/10/08 10:28:47;;;;;;;3.40;3.20;;;;;;;-142.65;73.49;50172.78;5093975;28;20261;-69
2022/10/08 10:31:26;;;;;;;3.17;2.63;;;;;;;-142.65;74.21;50170.78;5094194;28;20224;-68
2022/10/08 10:34:21;;;;;;;12.93;3.50;;;;;;;;;;5093583;28;20188;-68
2022/10/08 10:36:49;;;;;;;3.50;3.20;;;;;;;;;;5061644;28;20198;-68
2022/10/08 10:39:37;;;;;;;2.70;2.50;;;;;;;-142.65;73.06;50174.75;5093663;28;20202;-68
2022/10/08 10:42:32;;;;;;;3.03;2.83;;;;;;;-142.65;73.73;50164.81;5093862;28;20658;-68
2022/10/08 10:45:17;;;;;;;5.20;3.73;;;;;;;-142.65;70.27;50172.78;5094016;28;20178;-68
2022/10/08 10:47:43;;;;;;;4.13;2.10;;;;;;;-142.65;70.11;50162.81;5093485;28;20689;-69
2022/10/08 10:50:15;;;;;;;2.23;2.13;;;;;;;-142.65;69.80;50170.78;5093531;28;20613;-68
2022/10/08 10:52:54;;;;;;;2.63;2.47;;;;;;;-142.65;68.03;50170.78;5094013;28;20257;-68
2022/10/08 10:55:43;;;;;;;5.40;3.17;;;;;;;;;;5093690;28;20173;-69
2022/10/08 10:58:28;;;;;;;4.83;2.80;;;;;;;;;;5080200;28;20677;-68
2022/10/08 11:01:15;;;;;;;6.00;2.53;;;;;;;-142.65;66.94;50162.81;5093298;28;20210;-68
2022/10/08 11:04:16;;;;;;;6.37;2.83;;;;;;;;;;5093523;28;20178;-68
2022/10/08 11:06:43;;;;;;;6.73;3.33;;;;;;;;;;4991620;28;20567;-68
2022/10/08 11:09:15;;;;;;;5.63;2.60;;;;;;;;;;5072815;28;20289;-69
2022/10/08 11:11:47;;;;;;;2.17;2.17;;;;;;;-142.65;67.19;50170.78;5093425;28;20174;-68
2022/10/08 11:14:36;;;;;;;3.60;2.33;;;;;;;-142.65;65.94;50172.78;5096796;28;20546;-68
2022/10/08 11:17:32;;;;;;;2.83;2.63;;;;;;;-142.65;67.09;50162.81;5097286;28;20260;-68
2022/10/08 11:20:02;;;;;;;3.20;2.83;;;;;;;;;;5097522;28;20214;-68
2022/10/08 11:22:43;;;;;;;3.20;2.77;;;;;;;-142.65;66.04;50164.81;5097280;28;20189;-69
2022/10/08 11:25:22;;;;;;;2.47;2.47;;;;;;;-142.65;66.73;50168.78;5097298;28;20173;-69
2022/10/08 11:27:58;;;;;;;3.87;1.43;;;;;;;-142.65;63.35;50174.75;5097342;28;20166;-69
2022/10/08 11:30:33;;;;;;;1.30;1.30;;;;;;;;;;5097079;28;20327;-69
2022/10/08 11:33:01;;;;;;;3.03;1.70;;;;;;;-142.65;64.74;50168.78;5097468;28;20181;-69
2022/10/08 11:36:09;;;;;;;2.67;1.40;;;;;;;-142.65;63.46;50172.78;5097029;28;20189;-69
2022/10/08 11:38:58;;;;;;;3.23;1.40;;;;;;;-142.65;65.46;50174.75;5070059;28;20690;-68
2022/10/08 11:41:35;;;;;;;1.00;1.00;;;;;;;-142.65;63.94;50170.78;5097195;28;20266;-69
2022/10/08 11:44:06;;;;;;;3.50;1.13;;;;;;;-142.65;66.16;50178.75;5096961;28;20538;-68
2022/10/08 11:46:35;;;;;;;1.30;1.30;;;;;;;-142.65;64.31;50170.78;5096932;28;20182;-68
2022/10/08 11:49:22;;;;;;;4.07;1.57;;;;;;;-142.65;62.88;50170.78;5096769;28;20269;-69
2022/10/08 11:51:51;;;;;;;1.37;1.37;;;;;;;-142.65;61.65;50168.78;5095932;28;20272;-68
2022/10/08 11:54:33;;;;;;;5.13;1.70;;;;;;;-142.65;63.26;50170.78;5097246;28;20194;-68
2022/10/08 11:57:21;;;;;;;1.27;1.27;;;;;;;-142.65;62.63;50170.78;5096935;28;20615;-68
2022/10/08 11:59:57;;;;;;;1.20;1.20;;;;;;;-142.65;62.54;50168.78;5096549;28;20209;-68
2022/10/08 12:02:25;;;;;;;1.20;1.20;;;;;;;-142.65;62.89;50174.75;5097013;28;20177;-68
2022/10/08 12:04:53;;;;;;;2.50;1.30;;;;;;;;;;5096706;28;20190;-68
2022/10/08 12:07:36;;;;;;;1.57;1.17;;;;;;;-142.65;61.47;50162.81;5096804;28;20624;-68